Warroad, MN (56763)

5:45 AM CDT on March 27, 2017 (GMT -0500)
Warroad International-Carlson | | Change Station
Active Advisory: Dense Fog Advisory

Elev 1073 ft 48.94 °N, 95.35 °W | Updated 11 minutes ago

Fog
Fog
28 °F
Feels Like 28 °F
N
0
Wind Variable Wind from North

Today
High -- | Low -- °F
--% Chance of Precip.
Yesterday
High -- | Low -- °F
Precip. -- in
Pressure 29.96 in
Visibility 0.8 miles
Clouds Mostly Cloudy 100 ft
Dew Point 25 °F
Humidity 86%
Rainfall 0.00 in
Snow Depth Not available.
7:08 AM 7:45 PM
Waning Crescent, 1% visible
METAR KRRT 271034Z AUTO 00000KT 3/4SM BR BKN001 M02/M04 A2996 RMK AO2
Pressure 29.96 in
Visibility 0.8 miles
Clouds Mostly Cloudy 100 ft
Dew Point 25 °F
Humidity 86%
Rainfall 0.00 in
Snow Depth Not available.
7:08 AM 7:45 PM
Waning Crescent, 1% visible
METAR KRRT 271034Z AUTO 00000KT 3/4SM BR BKN001 M02/M04 A2996 RMK AO2

Get Your Daily Forecast Email!

Thanks for signing up!

Be on the lookout for a verification email in your inbox.

You'll start receiving severe weather alerts in your inbox..

×

10-Day Weather Forecast

Almanac

Astronomy

Mar. 27, 2017 Rise Set
Actual Time
Civil Twilight
Nautical Twilight
Astronomical Twilight
Moon
Length of Visible Light
Length of Day
Tomorrow will be .
, % of the Moon is Illuminated

Today's Extremes

State Highs State Lows

Community

WunderPhotos

Upload Photos

1,962,540 photos uploaded!

WunderBlog® & News

Nearby

Air Quality

  Air Quality AQ Index Pollutant
Not available.

Snow Depth

Station Depth Elevation

Earthquake Activity

City Distance Mag. Time & Date
Minimum magnitude displayed is 2.5.

Earthquake Activity

City Distance Mag. Time & Date
Minimum magnitude displayed is 2.5.

Coastal Water Temperatures

Place Temperature

Stations

Nearby Weather Stations

Station Location Temp. Windchill Dew Point Humidity Wind Precip. Elev Updated Type
                   

Watches & Warnings

Dense Fog Advisory
Issued: 3:20 AM CDT Mar. 27, 2017 – National Weather Service

... Dense fog advisory remains in effect until noon CDT today...

* visibilities... less than a quarter mile.

* Impacts... limited visibilities will make travel very difficult.

Precautionary/preparedness actions...

A dense fog advisory means visibilities will frequently be
reduced to less than one quarter mile. If driving, slow down, use
your headlights, and leave plenty of distance ahead of you.